createdAt,value
2018-12-14T00:02:12.132Z,6.72
2018-12-14T00:04:40.875Z,6.40
2018-12-14T00:07:10.202Z,5.55
2018-12-14T00:09:39.893Z,5.87
2018-12-14T00:12:08.692Z,6.00
2018-12-14T00:14:37.528Z,6.70
2018-12-14T00:17:06.208Z,6.80
2018-12-14T00:19:34.895Z,5.78
2018-12-14T00:22:03.651Z,6.40
2018-12-14T00:24:32.437Z,5.97
2018-12-14T00:27:01.351Z,7.03
2018-12-14T00:29:30.220Z,6.70
2018-12-14T00:31:58.934Z,5.80
2018-12-14T00:34:27.725Z,6.30
2018-12-14T00:36:56.383Z,6.73
2018-12-14T00:39:26.040Z,7.60
2018-12-14T00:41:54.856Z,7.03
2018-12-14T00:44:23.553Z,7.07
2018-12-14T00:46:52.191Z,7.03
2018-12-14T00:49:20.930Z,6.47
2018-12-14T00:51:49.576Z,7.37
2018-12-14T00:54:18.263Z,6.97
2018-12-14T00:56:48.072Z,7.87
2018-12-14T00:59:18.397Z,7.40
2018-12-14T01:01:47.084Z,7.80
2018-12-14T01:04:15.890Z,9.27
2018-12-14T01:06:44.536Z,7.40
2018-12-14T01:09:13.175Z,7.80
2018-12-14T01:11:42.232Z,7.47
2018-12-14T01:14:10.873Z,8.17
2018-12-14T01:16:39.596Z,7.80
2018-12-14T01:19:08.683Z,8.50
2018-12-14T01:21:37.432Z,9.40
2018-12-14T01:24:06.239Z,8.33
2018-12-14T01:26:34.964Z,8.53
2018-12-14T01:29:03.593Z,8.53
2018-12-14T01:31:32.254Z,8.57
2018-12-14T01:34:00.983Z,7.17
2018-12-14T01:36:30.302Z,7.57
2018-12-14T01:39:00.284Z,8.40
2018-12-14T01:41:29.005Z,8.60
2018-12-14T01:43:57.657Z,9.17
2018-12-14T01:46:26.329Z,8.23
2018-12-14T01:48:55.192Z,9.10
2018-12-14T01:51:23.907Z,7.00
2018-12-14T01:53:52.541Z,9.83
2018-12-14T01:56:21.380Z,8.83
2018-12-14T01:58:50.015Z,9.40
2018-12-14T02:01:19.440Z,8.60
2018-12-14T02:03:48.234Z,7.95
2018-12-14T02:06:17.837Z,8.53
2018-12-14T02:08:46.545Z,7.80
2018-12-14T02:11:15.441Z,8.87
2018-12-14T02:13:44.337Z,8.38
2018-12-14T02:16:13.020Z,7.85
2018-12-14T02:18:41.696Z,8.40
2018-12-14T02:21:10.368Z,7.60
2018-12-14T02:23:39.076Z,9.10
2018-12-14T02:26:07.894Z,9.05
2018-12-14T02:28:36.577Z,9.83
2018-12-14T02:31:05.242Z,10.08
2018-12-14T02:33:33.896Z,8.73
2018-12-14T02:36:02.665Z,8.70
2018-12-14T02:38:31.507Z,8.97
2018-12-14T02:41:00.381Z,8.95
2018-12-14T02:43:29.169Z,9.20
2018-12-14T02:45:58.178Z,9.40
2018-12-14T02:48:26.869Z,9.67
2018-12-14T02:50:56.193Z,8.90
2018-12-14T02:53:24.909Z,9.67
2018-12-14T02:55:53.624Z,9.30
2018-12-14T02:58:22.265Z,10.63
2018-12-14T03:00:50.939Z,8.93
2018-12-14T03:03:19.728Z,10.03
2018-12-14T03:05:48.419Z,9.93
2018-12-14T03:08:17.308Z,10.33
2018-12-14T03:10:46.019Z,8.73
2018-12-14T03:13:14.705Z,8.80
2018-12-14T03:15:43.691Z,9.63
2018-12-14T03:18:13.612Z,11.12
2018-12-14T03:20:43.531Z,8.80
2018-12-14T03:23:12.206Z,8.93
2018-12-14T03:25:41.228Z,10.30
2018-12-14T03:28:09.888Z,10.93
2018-12-14T03:30:39.194Z,9.33
2018-12-14T03:33:09.498Z,8.60
2018-12-14T03:35:38.505Z,9.18
2018-12-14T03:38:07.186Z,9.43
2018-12-14T03:40:36.692Z,9.95
2018-12-14T03:43:05.668Z,10.57
2018-12-14T03:45:34.270Z,11.18
2018-12-14T03:48:04.504Z,10.23
2018-12-14T03:50:33.155Z,9.73
2018-12-14T03:53:01.776Z,10.68
2018-12-14T03:55:30.720Z,9.93
2018-12-14T03:57:59.960Z,9.45
2018-12-14T04:00:28.820Z,10.20
2018-12-14T04:02:58.016Z,10.43
2018-12-14T04:05:27.219Z,9.73
2018-12-14T04:07:56.316Z,8.98
2018-12-14T04:10:25.119Z,10.03
2018-12-14T04:12:53.743Z,9.07
2018-12-14T04:15:22.585Z,9.63
2018-12-14T04:17:51.556Z,9.77
2018-12-14T04:20:20.245Z,11.57
2018-12-14T04:22:49.109Z,10.13
2018-12-14T04:25:17.821Z,10.13
2018-12-14T04:27:46.505Z,9.87
2018-12-14T04:30:15.312Z,10.77
2018-12-14T04:32:44.083Z,11.50
2018-12-14T04:35:12.836Z,11.40
2018-12-14T04:37:41.530Z,10.80
2018-12-14T04:40:10.402Z,10.93
2018-12-14T04:42:39.489Z,11.00
2018-12-14T04:45:08.456Z,10.28
2018-12-14T04:47:37.341Z,11.40
2018-12-14T04:50:06.137Z,9.90
2018-12-14T04:52:34.856Z,10.15
2018-12-14T04:55:04.547Z,11.27
2018-12-14T04:57:33.336Z,9.43
2018-12-14T05:00:02.167Z,9.83
2018-12-14T05:02:32.732Z,10.23
2018-12-14T05:05:01.538Z,11.10
2018-12-14T05:07:30.297Z,10.13
2018-12-14T05:09:59.800Z,9.33
2018-12-14T05:12:28.503Z,10.38
2018-12-14T05:14:58.302Z,9.53
2018-12-14T05:17:29.042Z,11.63
2018-12-14T05:19:57.997Z,10.50
2018-12-14T05:22:26.787Z,12.93
2018-12-14T05:24:57.767Z,9.75
2018-12-14T05:27:26.502Z,10.50
2018-12-14T05:29:56.709Z,10.07
2018-12-14T05:32:26.702Z,10.08
2018-12-14T05:34:56.447Z,9.70
2018-12-14T05:37:25.329Z,9.40
2018-12-14T05:39:54.152Z,10.47
2018-12-14T05:42:23.933Z,10.13
2018-12-14T05:44:52.661Z,10.10
2018-12-14T05:47:21.491Z,11.53
2018-12-14T05:49:50.170Z,12.13
2018-12-14T05:52:18.841Z,11.47
2018-12-14T05:54:47.736Z,10.40
2018-12-14T05:57:16.565Z,10.58
2018-12-14T05:59:46.796Z,15.30
2018-12-14T06:02:15.809Z,11.53
2018-12-14T06:04:44.468Z,11.77
2018-12-14T06:07:13.104Z,11.25
2018-12-14T06:09:41.960Z,13.78
2018-12-14T06:12:10.885Z,12.00
2018-12-14T06:14:39.895Z,9.58
2018-12-14T06:17:09.289Z,11.28
2018-12-14T06:19:40.575Z,10.77
2018-12-14T06:24:51.488Z,11.08
2018-12-14T06:27:20.159Z,12.03
2018-12-14T06:29:50.170Z,10.00
2018-12-14T06:32:19.613Z,10.07
2018-12-14T06:34:48.251Z,11.23
2018-12-14T06:37:17.322Z,10.63
2018-12-14T06:39:46.207Z,14.53
2018-12-14T06:42:16.340Z,10.83
2018-12-14T06:44:45.056Z,11.63
2018-12-14T06:47:13.826Z,10.17
2018-12-14T06:49:42.498Z,10.45
2018-12-14T06:52:11.187Z,10.67
2018-12-14T06:54:40.616Z,15.27
2018-12-14T06:57:10.502Z,18.37
2018-12-14T06:59:41.620Z,24.82
2018-12-14T07:02:10.355Z,37.03
2018-12-14T07:04:39.153Z,23.27
2018-12-14T07:07:08.850Z,20.87
2018-12-14T07:09:37.804Z,13.03
2018-12-14T07:12:06.467Z,16.05
2018-12-14T07:14:35.154Z,12.40
2018-12-14T07:17:03.867Z,9.23
2018-12-14T07:19:32.705Z,15.00
2018-12-14T07:22:01.786Z,12.33
2018-12-14T07:24:30.938Z,12.10
2018-12-14T07:26:59.727Z,13.10
2018-12-14T07:29:28.444Z,13.90
2018-12-14T07:31:57.144Z,11.80
2018-12-14T07:34:26.605Z,13.22
2018-12-14T07:36:55.395Z,14.73
2018-12-14T07:39:24.205Z,11.67
2018-12-14T07:41:52.917Z,10.73
2018-12-14T07:44:21.695Z,12.23
2018-12-14T07:46:50.604Z,12.73
2018-12-14T07:49:19.260Z,19.33
2018-12-14T07:51:48.133Z,12.37
2018-12-14T07:54:16.783Z,12.33
2018-12-14T07:56:45.496Z,10.60
2018-12-14T07:59:14.945Z,10.82
2018-12-14T08:01:43.659Z,14.40
2018-12-14T08:04:12.484Z,12.00
2018-12-14T08:06:41.312Z,11.27
2018-12-14T08:09:10.058Z,13.90
2018-12-14T08:11:38.703Z,10.93
2018-12-14T08:14:07.491Z,10.87
2018-12-14T08:16:36.137Z,14.00
2018-12-14T08:19:06.327Z,11.12
2018-12-14T08:21:35.352Z,11.83
2018-12-14T08:24:04.275Z,10.70
2018-12-14T08:26:33.241Z,11.17
2018-12-14T08:29:02.135Z,11.93
2018-12-14T08:31:30.846Z,12.00
2018-12-14T08:33:59.481Z,11.83
2018-12-14T08:36:28.340Z,11.57
2018-12-14T08:38:57.074Z,11.50
2018-12-14T08:41:26.816Z,13.83
2018-12-14T08:43:55.674Z,11.23
2018-12-14T08:46:24.361Z,11.10
2018-12-14T08:48:53.052Z,11.20
2018-12-14T08:51:21.817Z,12.67
2018-12-14T08:53:50.550Z,12.70
2018-12-14T08:56:19.284Z,12.57
2018-12-14T08:58:48.131Z,18.77
2018-12-14T09:01:16.930Z,11.17
2018-12-14T09:03:45.584Z,13.40
2018-12-14T09:06:14.435Z,9.97
2018-12-14T09:08:43.260Z,12.00
2018-12-14T09:11:12.052Z,10.57
2018-12-14T09:13:47.707Z,10.18
2018-12-14T09:16:14.217Z,9.03
2018-12-14T09:18:44.243Z,11.07
2018-12-14T09:21:13.024Z,11.47
2018-12-14T09:23:43.152Z,9.80
2018-12-14T09:26:12.144Z,9.23
2018-12-14T09:28:41.328Z,9.13
2018-12-14T09:31:10.014Z,10.60
2018-12-14T09:33:38.826Z,10.28
2018-12-14T09:36:08.295Z,15.30
2018-12-14T09:38:37.033Z,11.10
2018-12-14T09:41:05.868Z,9.50
2018-12-14T09:43:34.691Z,10.35
2018-12-14T09:46:04.260Z,8.33
2018-12-14T09:48:33.100Z,9.00
2018-12-14T09:51:02.015Z,11.15
2018-12-14T09:53:30.804Z,12.37
2018-12-14T09:55:59.619Z,8.73
2018-12-14T09:58:28.450Z,9.67
2018-12-14T10:00:57.113Z,11.03
2018-12-14T10:03:27.195Z,8.58
2018-12-14T10:05:56.687Z,10.43
2018-12-14T10:08:25.524Z,10.33
2018-12-14T10:10:54.600Z,10.00
2018-12-14T10:13:23.644Z,13.77
2018-12-14T10:15:53.687Z,9.80
2018-12-14T10:18:22.820Z,10.13
2018-12-14T10:20:51.704Z,9.93
2018-12-14T10:23:20.439Z,11.40
2018-12-14T10:25:49.305Z,10.60
2018-12-14T10:28:18.044Z,11.60
2018-12-14T10:30:46.819Z,9.48
2018-12-14T10:33:15.902Z,9.00
2018-12-14T10:35:44.663Z,10.63
2018-12-14T10:38:13.356Z,8.80
2018-12-14T10:40:43.518Z,11.77
2018-12-14T10:43:12.201Z,9.03
2018-12-14T10:45:41.336Z,8.78
2018-12-14T10:48:10.128Z,10.55
2018-12-14T10:50:39.907Z,8.38
2018-12-14T10:53:13.397Z,7.92
2018-12-14T10:55:42.190Z,11.80
2018-12-14T10:58:11.026Z,8.47
2018-12-14T11:00:44.932Z,10.03
2018-12-14T11:03:13.871Z,8.60
2018-12-14T11:05:43.216Z,9.37
2018-12-14T11:08:12.069Z,10.73
2018-12-14T11:10:40.756Z,8.65
2018-12-14T11:13:09.585Z,11.03
2018-12-14T11:15:38.296Z,9.70
2018-12-14T11:18:07.122Z,10.80
2018-12-14T11:20:35.803Z,9.07
2018-12-14T11:23:04.699Z,9.93
2018-12-14T11:25:33.317Z,9.18
2018-12-14T11:28:02.051Z,9.00
2018-12-14T11:30:30.903Z,9.37
2018-12-14T11:32:59.796Z,10.77
2018-12-14T11:35:28.481Z,10.60
2018-12-14T11:37:57.486Z,9.90
2018-12-14T11:40:26.800Z,10.00
2018-12-14T11:42:55.494Z,11.57
2018-12-14T11:45:24.487Z,12.97
2018-12-14T11:47:53.173Z,9.47
2018-12-14T11:50:21.857Z,19.95
2018-12-14T11:52:50.713Z,20.80
2018-12-14T11:55:19.388Z,13.80
2018-12-14T11:57:48.174Z,19.70
2018-12-14T12:00:17.141Z,18.12
2018-12-14T12:02:45.868Z,11.80
2018-12-14T12:05:14.586Z,12.60
2018-12-14T12:07:44.397Z,14.03
2018-12-14T12:10:13.292Z,11.27
2018-12-14T12:12:42.131Z,12.03
2018-12-14T12:15:10.956Z,12.58
2018-12-14T12:17:40.518Z,9.43
2018-12-14T12:20:09.757Z,10.93
2018-12-14T12:22:38.560Z,11.33
2018-12-14T12:25:07.304Z,18.83
2018-12-14T12:27:36.061Z,12.30
2018-12-14T12:30:05.442Z,11.30
2018-12-14T12:32:35.014Z,17.93
2018-12-14T12:35:05.500Z,11.88
2018-12-14T12:37:35.038Z,9.27
2018-12-14T12:40:05.770Z,11.17
2018-12-14T12:42:35.786Z,10.63
2018-12-14T12:45:05.361Z,11.27
2018-12-14T12:47:34.605Z,16.00
2018-12-14T12:50:03.479Z,13.30
2018-12-14T12:52:32.315Z,13.77
2018-12-14T12:55:01.042Z,10.93
2018-12-14T12:57:29.849Z,11.63
2018-12-14T12:59:58.531Z,9.63
2018-12-14T13:02:27.218Z,13.97
2018-12-14T13:09:55.499Z,12.85
2018-12-14T13:12:25.040Z,12.30
2018-12-14T13:14:53.695Z,9.27
2018-12-14T13:17:22.483Z,10.70
2018-12-14T13:19:51.168Z,10.30
2018-12-14T13:22:19.887Z,12.60
2018-12-14T13:24:48.667Z,11.63
2018-12-14T13:27:20.499Z,12.00
2018-12-14T13:29:50.589Z,10.70
2018-12-14T13:32:20.209Z,14.83
2018-12-14T13:34:48.957Z,13.53
2018-12-14T13:37:18.021Z,13.43
2018-12-14T13:39:46.897Z,15.20
2018-12-14T13:42:16.103Z,13.03
2018-12-14T13:44:46.667Z,12.90
2018-12-14T13:47:15.718Z,18.07
2018-12-14T13:49:44.566Z,13.27
2018-12-14T13:52:13.520Z,13.00
2018-12-14T13:54:42.175Z,14.18
2018-12-14T13:57:11.023Z,11.55
2018-12-14T13:59:41.112Z,13.50
2018-12-14T14:02:09.844Z,14.03
2018-12-14T14:04:38.596Z,11.73
2018-12-14T14:07:07.988Z,11.78
2018-12-14T14:09:36.854Z,13.00
2018-12-14T14:12:05.524Z,12.13
2018-12-14T14:14:34.460Z,13.03
2018-12-14T14:17:03.378Z,15.00
2018-12-14T14:19:32.284Z,13.65
2018-12-14T14:22:01.047Z,14.47
2018-12-14T14:24:29.692Z,12.50
2018-12-14T14:26:59.112Z,12.30
2018-12-14T14:29:28.046Z,12.80
2018-12-14T14:31:57.102Z,11.43
2018-12-14T14:34:25.807Z,13.70
2018-12-14T14:36:54.702Z,12.17
2018-12-14T14:39:24.815Z,12.17
2018-12-14T14:41:53.712Z,12.17
2018-12-14T14:44:22.537Z,14.67
2018-12-14T14:46:51.231Z,12.57
2018-12-14T14:49:19.951Z,13.47
2018-12-14T14:51:49.756Z,11.70
2018-12-14T14:54:18.601Z,14.23
2018-12-14T14:56:47.291Z,14.10
2018-12-14T14:59:16.090Z,16.17
2018-12-14T15:01:44.973Z,14.43
2018-12-14T15:04:13.808Z,13.33
2018-12-14T15:06:42.639Z,13.73
2018-12-14T15:09:11.705Z,15.25
2018-12-14T15:11:40.453Z,15.60
2018-12-14T15:14:09.288Z,13.18
2018-12-14T15:16:38.018Z,14.70
2018-12-14T15:19:06.719Z,15.72
2018-12-14T15:21:35.491Z,12.97
2018-12-14T15:24:04.180Z,14.73
2018-12-14T15:26:32.863Z,14.73
2018-12-14T15:29:01.738Z,15.70
2018-12-14T15:31:30.994Z,15.63
2018-12-14T15:33:59.861Z,13.83
2018-12-14T15:36:28.684Z,14.93
2018-12-14T15:38:57.331Z,18.43
2018-12-14T15:41:26.267Z,16.17
2018-12-14T15:43:55.156Z,14.33
2018-12-14T15:46:23.900Z,15.80
2018-12-14T15:48:52.699Z,15.20
2018-12-14T15:51:23.079Z,16.10
2018-12-14T15:53:51.749Z,17.30
2018-12-14T15:56:20.515Z,15.77
2018-12-14T15:58:49.273Z,14.57
2018-12-14T16:01:18.163Z,16.87
2018-12-14T16:03:46.847Z,15.77
2018-12-14T16:06:15.637Z,17.23
2018-12-14T16:08:44.902Z,17.12
2018-12-14T16:11:14.530Z,16.53
2018-12-14T16:13:43.516Z,14.18
2018-12-14T16:16:12.214Z,15.72
2018-12-14T16:18:41.025Z,17.33
2018-12-14T16:21:10.503Z,21.30
2018-12-14T16:23:39.240Z,15.75
2018-12-14T16:26:08.274Z,17.37
2018-12-14T16:28:37.250Z,16.57
2018-12-14T16:31:06.100Z,14.90
2018-12-14T16:33:34.808Z,15.88
2018-12-14T16:36:03.774Z,18.43
2018-12-14T16:38:32.562Z,17.23
2018-12-14T16:41:01.461Z,15.30
2018-12-14T16:43:30.380Z,18.65
2018-12-14T16:45:59.151Z,17.87
2018-12-14T16:48:30.007Z,17.73
2018-12-14T16:51:00.297Z,16.13
2018-12-14T16:53:31.080Z,17.67
2018-12-14T16:55:59.966Z,18.40
2018-12-14T16:58:28.849Z,16.43
2018-12-14T17:00:57.602Z,18.23
2018-12-14T17:03:27.315Z,19.12
2018-12-14T17:05:56.237Z,16.77
2018-12-14T17:08:24.909Z,18.20
2018-12-14T17:10:53.663Z,19.57
2018-12-14T17:13:22.535Z,17.53
2018-12-14T17:15:51.299Z,18.63
2018-12-14T17:18:20.059Z,18.63
2018-12-14T17:20:48.952Z,18.80
2018-12-14T17:23:17.739Z,20.27
2018-12-14T17:25:46.601Z,20.60
2018-12-14T17:28:15.485Z,20.73
2018-12-14T17:30:44.127Z,19.48
2018-12-14T17:33:13.115Z,18.42
2018-12-14T17:35:42.776Z,18.67
2018-12-14T17:38:11.690Z,20.17
2018-12-14T17:40:40.489Z,20.10
2018-12-14T17:43:09.288Z,20.43
2018-12-14T17:45:39.906Z,20.40
2018-12-14T17:48:09.074Z,22.50
2018-12-14T17:50:38.044Z,22.40
2018-12-14T17:53:06.786Z,22.35
2018-12-14T17:55:35.507Z,26.35
2018-12-14T17:58:04.403Z,23.40
2018-12-14T18:00:33.392Z,27.30
2018-12-14T18:03:02.257Z,26.60
2018-12-14T18:05:31.324Z,29.70
2018-12-14T18:08:00.201Z,28.83
2018-12-14T18:10:29.063Z,28.17
2018-12-14T18:12:57.826Z,27.70
2018-12-14T18:15:27.537Z,26.52
2018-12-14T18:17:56.368Z,27.50
2018-12-14T18:20:25.411Z,29.03
2018-12-14T18:22:54.309Z,30.47
2018-12-14T18:25:23.379Z,31.07
2018-12-14T18:27:52.248Z,28.77
2018-12-14T18:30:20.964Z,28.83
2018-12-14T18:32:49.645Z,28.17
2018-12-14T18:35:18.424Z,29.53
2018-12-14T18:37:47.143Z,31.03
2018-12-14T18:40:15.906Z,30.70
2018-12-14T18:42:44.720Z,33.42
2018-12-14T18:45:13.511Z,30.48
2018-12-14T18:47:43.196Z,31.93
2018-12-14T18:50:12.007Z,34.37
2018-12-14T18:52:40.691Z,30.03
2018-12-14T18:55:09.630Z,31.37
2018-12-14T18:57:38.470Z,33.63
2018-12-14T19:00:09.418Z,32.25
2018-12-14T19:02:38.314Z,31.82
2018-12-14T19:05:07.577Z,33.70
2018-12-14T19:07:36.300Z,33.33
2018-12-14T19:10:05.920Z,33.58
2018-12-14T19:12:35.386Z,32.30
2018-12-14T19:15:04.521Z,34.87
2018-12-14T19:17:33.399Z,33.45
2018-12-14T19:20:02.291Z,32.77
2018-12-14T19:22:31.080Z,35.37
2018-12-14T19:24:59.839Z,32.57
2018-12-14T19:27:29.728Z,34.45
2018-12-14T19:29:58.557Z,34.13
2018-12-14T19:32:29.775Z,31.75
2018-12-14T19:34:58.913Z,32.00
2018-12-14T19:37:27.603Z,31.97
2018-12-14T19:39:56.350Z,34.33
2018-12-14T19:42:25.247Z,32.90
2018-12-14T19:44:54.712Z,34.30
2018-12-14T19:47:25.018Z,33.57
2018-12-14T19:49:55.213Z,33.63
2018-12-14T19:52:24.003Z,31.50
2018-12-14T19:54:52.704Z,32.10
2018-12-14T19:57:21.547Z,33.77
2018-12-14T19:59:50.244Z,33.67
2018-12-14T20:02:19.813Z,31.10
2018-12-14T20:04:48.902Z,31.85
2018-12-14T20:07:17.704Z,33.87
2018-12-14T20:09:48.288Z,31.77
2018-12-14T20:12:17.280Z,33.50
2018-12-14T20:14:46.736Z,32.90
2018-12-14T20:17:15.580Z,33.28
2018-12-14T20:19:44.395Z,31.33
2018-12-14T20:22:13.189Z,31.05
2018-12-14T20:24:41.818Z,32.70
2018-12-14T20:27:10.709Z,31.50
2018-12-14T20:29:39.391Z,33.33
2018-12-14T20:32:08.189Z,33.05
2018-12-14T20:34:36.935Z,29.67
2018-12-14T20:37:05.757Z,32.55
2018-12-14T20:39:34.579Z,30.93
2018-12-14T20:42:03.693Z,33.48
2018-12-14T20:44:32.486Z,31.67
2018-12-14T20:47:01.211Z,29.90
2018-12-14T20:49:30.176Z,30.73
2018-12-14T20:51:59.788Z,29.67
2018-12-14T20:54:28.577Z,29.47
2018-12-14T20:56:59.469Z,30.95
2018-12-14T20:59:28.212Z,26.90
2018-12-14T21:01:57.741Z,31.10
2018-12-14T21:04:26.906Z,31.13
2018-12-14T21:06:56.740Z,30.55
2018-12-14T21:09:25.544Z,30.53
2018-12-14T21:11:55.112Z,30.50
2018-12-14T21:14:25.344Z,29.63
2018-12-14T21:16:54.079Z,26.87
2018-12-14T21:19:24.509Z,28.63
2018-12-14T21:21:53.215Z,29.53
2018-12-14T21:24:23.208Z,29.63
2018-12-14T21:26:54.212Z,29.93
2018-12-14T21:29:24.866Z,29.13
2018-12-14T21:31:53.715Z,29.50
2018-12-14T21:34:22.576Z,28.97
2018-12-14T21:36:51.293Z,28.63
2018-12-14T21:39:19.996Z,51.90
2018-12-14T21:41:48.885Z,29.00
2018-12-14T21:44:17.659Z,27.97
2018-12-14T21:46:46.412Z,29.60
2018-12-14T21:49:15.407Z,31.07
2018-12-14T21:51:44.411Z,28.20
2018-12-14T21:54:13.940Z,26.80
2018-12-14T21:56:42.771Z,25.53
2018-12-14T21:59:12.564Z,27.40
2018-12-14T22:01:42.482Z,26.43
2018-12-14T22:04:11.286Z,25.53
2018-12-14T22:06:39.942Z,25.33
2018-12-14T22:09:10.596Z,29.12
2018-12-14T22:11:39.624Z,25.65
2018-12-14T22:14:10.363Z,23.93
2018-12-14T22:16:39.561Z,23.67
2018-12-14T22:19:09.111Z,24.75
2018-12-14T22:21:37.839Z,24.45
2018-12-14T22:24:06.538Z,25.73
2018-12-14T22:26:35.573Z,23.20
2018-12-14T22:29:05.339Z,22.83
2018-12-14T22:31:34.127Z,24.97
2018-12-14T22:34:02.915Z,22.82
2018-12-14T22:36:31.818Z,22.05
2018-12-14T22:39:00.504Z,26.00
2018-12-14T22:41:29.331Z,22.50
2018-12-14T22:43:58.052Z,22.97
2018-12-14T22:46:27.956Z,24.57
2018-12-14T22:48:56.622Z,24.70
2018-12-14T22:51:25.512Z,22.13
2018-12-14T22:53:54.249Z,22.27
2018-12-14T22:56:23.500Z,22.27
2018-12-14T22:58:52.332Z,24.37
2018-12-14T23:01:21.865Z,23.57
2018-12-14T23:03:50.617Z,21.40
2018-12-14T23:06:20.137Z,22.77
2018-12-14T23:08:51.173Z,22.17
2018-12-14T23:11:19.840Z,22.27
2018-12-14T23:13:49.062Z,26.63
2018-12-14T23:16:17.846Z,23.00
2018-12-14T23:18:47.229Z,21.50
2018-12-14T23:21:16.797Z,21.00
2018-12-14T23:23:45.588Z,21.73
2018-12-14T23:26:14.334Z,21.73
2018-12-14T23:28:43.059Z,20.10
2018-12-14T23:31:11.932Z,20.48
2018-12-14T23:33:40.594Z,21.37
2018-12-14T23:36:09.283Z,20.20
2018-12-14T23:38:37.972Z,20.60
2018-12-14T23:41:06.787Z,20.43
2018-12-14T23:43:35.485Z,20.83
2018-12-14T23:46:04.964Z,22.25
2018-12-14T23:48:33.780Z,19.27
2018-12-14T23:51:03.785Z,22.13
2018-12-14T23:53:33.284Z,20.72
2018-12-14T23:56:03.894Z,23.00
2018-12-14T23:58:33.580Z,20.97
